CYXP

Pangnirtung Airport

Pangnirtung, Canada
METAR CYXP 182200Z VRB02KT 15SM BKN014 OVC020 M08/M10 A2980 RMK ST6SC2 -7.6/-10.2/0.0/10 SNOW COVER/MUCH LOOSE LAST STFD OBS/NEXT 191100Z SLP094
Observed Flight Rules
Oct-18 @ 22:00 UTC (11 hours ago) Marginal Visual Flight Rules
Wind Visibility Clouds
Variable at 2 knots 15 miles
  • Broken at 1,400' AGL
  • Overcast at 2,000' AGL
Temperatures Readings
Current -8°C / 18°F
Dewpoint -10°C / 14°F
Humidity 86%
Altimeter 29.8" Hg
Pressure 1009.4 hPa
Elevation 23
METAR CYXP 182200Z VRB02KT 15SM BKN014 OVC020 M08/M10 A2980 RMK ST6SC2 -7.6/-10.2/0.0/10 SNOW COVER/MUCH LOOSE LAST STFD OBS/NEXT 191100Z SLP094
Observed Flight Rules
Oct-18 @ 22:00 UTC
(11 hours ago)
MVFR
Wind Visibility
Variable at 2 knots 15 miles
Clouds
  • Broken at 1,400' AGL
  • Overcast at 2,000' AGL
Temperature Dewpoint
-8°C / 18°F -10°C / 14°F
Humidity Altimeter Pressure
86% 29.8" Hg 1009.4 hPa